createdAt,value
2019-06-01T00:00:13.205Z,99016.59
2019-06-01T00:01:17.823Z,99012.02
2019-06-01T00:02:22.622Z,99018.12
2019-06-01T00:03:26.737Z,99016.26
2019-06-01T00:04:29.338Z,99010.56
2019-06-01T00:05:32.086Z,99010.37
2019-06-01T00:06:34.969Z,99012.07
2019-06-01T00:07:38.660Z,99010.96
2019-06-01T00:08:41.459Z,99007.88
2019-06-01T00:09:43.293Z,99006.88
2019-06-01T00:10:45.791Z,99009.78
2019-06-01T00:11:49.661Z,99007.45
2019-06-01T00:12:51.498Z,99010.36
2019-06-01T00:13:55.182Z,99009.34
2019-06-01T00:14:58.334Z,99010.73
2019-06-01T00:16:00.340Z,99009.17
2019-06-01T00:17:03.422Z,99016.39
2019-06-01T00:18:06.337Z,99007.67
2019-06-01T00:19:08.762Z,99012.36
2019-06-01T00:20:12.599Z,99009.98
2019-06-01T00:21:15.123Z,99008.84
2019-06-01T00:22:17.348Z,99010.90
2019-06-01T00:23:20.174Z,99011.03
2019-06-01T00:24:23.233Z,99011.88
2019-06-01T00:25:24.912Z,99011.64
2019-06-01T00:26:27.276Z,99013.00
2019-06-01T00:27:29.824Z,99014.28
2019-06-01T00:28:32.389Z,99016.89
2019-06-01T00:29:35.177Z,99014.25
2019-06-01T00:30:38.048Z,99006.36
2019-06-01T00:31:41.209Z,99014.81
2019-06-01T00:32:43.684Z,99016.01
2019-06-01T00:33:47.556Z,99013.23
2019-06-01T00:34:51.923Z,99005.35
2019-06-01T00:35:54.666Z,99011.69
2019-06-01T00:36:57.048Z,99012.33
2019-06-01T00:38:00.084Z,99011.14
2019-06-01T00:39:05.713Z,99012.08
2019-06-01T00:40:09.440Z,99009.92
2019-06-01T00:41:14.414Z,99009.61
2019-06-01T00:42:17.867Z,99010.97
2019-06-01T00:43:21.588Z,99017.23
2019-06-01T00:44:24.513Z,99016.48
2019-06-01T00:45:26.925Z,99013.45
2019-06-01T00:46:29.284Z,99014.09
2019-06-01T00:47:32.005Z,99014.36
2019-06-01T00:48:34.066Z,99012.22
2019-06-01T00:49:36.445Z,99009.92
2019-06-01T00:50:40.246Z,99010.63
2019-06-01T00:51:42.854Z,99005.81
2019-06-01T00:52:45.251Z,99007.31
2019-06-01T00:53:49.160Z,99003.63
2019-06-01T00:54:53.526Z,99002.47
2019-06-01T00:55:57.800Z,98999.21
2019-06-01T00:57:00.569Z,98998.27
2019-06-01T00:58:03.999Z,99000.38
2019-06-01T00:59:06.841Z,98998.61
2019-06-01T01:00:09.898Z,99001.56
2019-06-01T01:01:12.531Z,98999.85
2019-06-01T01:02:16.421Z,98995.55
2019-06-01T01:03:18.693Z,98998.62
2019-06-01T01:04:21.480Z,99002.28
2019-06-01T01:05:24.731Z,98993.55
2019-06-01T01:06:27.357Z,98999.95
2019-06-01T01:07:29.888Z,98996.69
2019-06-01T01:08:32.535Z,98998.56
2019-06-01T01:09:35.315Z,98997.08
2019-06-01T01:10:38.105Z,98998.74
2019-06-01T01:11:40.743Z,98999.67
2019-06-01T01:13:03.080Z,98998.74
2019-06-01T01:14:06.863Z,99002.22
2019-06-01T01:15:09.570Z,98999.58
2019-06-01T01:16:11.605Z,99001.25
2019-06-01T01:17:14.239Z,98995.07
2019-06-01T01:18:16.661Z,99001.08
2019-06-01T01:19:19.671Z,98997.89
2019-06-01T01:20:22.694Z,99001.66
2019-06-01T01:21:24.452Z,98998.60
2019-06-01T01:22:26.229Z,99001.59
2019-06-01T01:23:28.729Z,99001.45
2019-06-01T01:24:33.777Z,99001.51
2019-06-01T01:25:37.044Z,99002.27
2019-06-01T01:26:39.417Z,98996.86
2019-06-01T01:27:41.143Z,99001.37
2019-06-01T01:28:43.660Z,99004.22
2019-06-01T01:29:46.811Z,98995.25
2019-06-01T01:31:05.522Z,98998.17
2019-06-01T01:31:53.846Z,98992.22
2019-06-01T01:32:58.163Z,98992.98
2019-06-01T01:34:00.696Z,98993.25
2019-06-01T01:35:06.283Z,98996.18
2019-06-01T01:36:08.751Z,98996.31
2019-06-01T01:37:11.654Z,98998.61
2019-06-01T01:38:15.870Z,98988.61
2019-06-01T01:39:18.178Z,98989.84
2019-06-01T01:40:22.372Z,98986.36
2019-06-01T01:41:25.314Z,98992.48
2019-06-01T01:42:27.130Z,98997.50
2019-06-01T01:43:29.234Z,98993.12
2019-06-01T01:44:31.964Z,98989.30
2019-06-01T01:45:34.390Z,98989.72
2019-06-01T01:46:36.784Z,98996.05
2019-06-01T01:47:39.444Z,98998.61
2019-06-01T01:48:41.300Z,98997.08
2019-06-01T01:49:44.246Z,99001.20
2019-06-01T01:50:46.675Z,99001.33
2019-06-01T01:51:50.409Z,99000.01
2019-06-01T01:52:54.707Z,98997.00
2019-06-01T01:53:58.787Z,98999.92
2019-06-01T01:55:01.179Z,98998.05
2019-06-01T01:56:03.743Z,99002.09
2019-06-01T01:57:07.248Z,98996.86
2019-06-01T01:58:10.549Z,98993.77
2019-06-01T01:59:13.697Z,98995.03
2019-06-01T02:00:36.120Z,98996.51
2019-06-01T02:01:38.222Z,98988.95
2019-06-01T02:02:41.232Z,98994.44
2019-06-01T02:03:43.124Z,98998.40
2019-06-01T02:04:45.991Z,98992.02
2019-06-01T02:05:48.549Z,98991.54
2019-06-01T02:06:51.817Z,98992.09
2019-06-01T02:07:54.912Z,98993.53
2019-06-01T02:08:57.331Z,98996.81
2019-06-01T02:10:01.937Z,98999.95
2019-06-01T02:11:04.700Z,98998.22
2019-06-01T02:12:06.958Z,98989.37
2019-06-01T02:13:11.875Z,98996.81
2019-06-01T02:14:14.519Z,98994.22
2019-06-01T02:15:17.434Z,98993.67
2019-06-01T02:16:20.400Z,98993.20
2019-06-01T02:17:23.855Z,98996.81
2019-06-01T02:18:25.949Z,98999.67
2019-06-01T02:19:28.489Z,98998.00
2019-06-01T02:20:31.982Z,98995.56
2019-06-01T02:21:33.653Z,98988.88
2019-06-01T02:22:36.441Z,99002.08
2019-06-01T02:23:38.847Z,98997.02
2019-06-01T02:24:40.717Z,98997.50
2019-06-01T02:25:43.727Z,98992.30
2019-06-01T02:26:46.261Z,98993.75
2019-06-01T02:27:49.547Z,98992.63
2019-06-01T02:28:53.146Z,98999.74
2019-06-01T02:29:55.859Z,98997.28
2019-06-01T02:30:59.968Z,98995.00
2019-06-01T02:32:04.770Z,98996.69
2019-06-01T02:33:08.330Z,99003.04
2019-06-01T02:34:10.821Z,99003.55
2019-06-01T02:35:14.558Z,99004.56
2019-06-01T02:36:17.509Z,99003.92
2019-06-01T02:37:19.281Z,99008.50
2019-06-01T02:38:22.048Z,99007.12
2019-06-01T02:39:24.814Z,98997.78
2019-06-01T02:40:28.977Z,99009.83
2019-06-01T02:41:31.716Z,99009.83
2019-06-01T02:42:33.531Z,99005.80
2019-06-01T02:43:35.429Z,99010.39
2019-06-01T02:44:37.896Z,99002.34
2019-06-01T02:45:40.270Z,99005.89
2019-06-01T02:46:42.936Z,99007.08
2019-06-01T02:47:45.940Z,99013.11
2019-06-01T02:48:48.225Z,99018.92
2019-06-01T02:49:51.101Z,99017.49
2019-06-01T02:50:55.799Z,99012.39
2019-06-01T02:51:57.593Z,99017.97
2019-06-01T02:53:01.509Z,99018.65
2019-06-01T02:54:04.220Z,99012.22
2019-06-01T02:55:15.527Z,99017.33
2019-06-01T02:56:17.894Z,99015.58
2019-06-01T02:57:21.694Z,99015.67
2019-06-01T02:58:23.936Z,99023.75
2019-06-01T02:59:26.682Z,99018.53
2019-06-01T03:01:07.051Z,99017.63
2019-06-01T03:02:13.637Z,99013.28
2019-06-01T03:03:15.032Z,99010.90
2019-06-01T03:04:18.253Z,99019.16
2019-06-01T03:05:21.388Z,99016.20
2019-06-01T03:06:29.492Z,99018.55
2019-06-01T03:07:33.404Z,99013.33
2019-06-01T03:08:36.795Z,99020.02
2019-06-01T03:09:39.302Z,99022.78
2019-06-01T03:10:41.348Z,99012.52
2019-06-01T03:11:45.405Z,99016.27
2019-06-01T03:12:50.982Z,99011.61
2019-06-01T03:13:56.308Z,99013.48
2019-06-01T03:15:02.717Z,99012.10
2019-06-01T03:16:08.900Z,99010.09
2019-06-01T03:17:15.596Z,99018.48
2019-06-01T03:18:21.760Z,99022.92
2019-06-01T03:19:28.094Z,99016.95
2019-06-01T03:20:31.863Z,99016.26
2019-06-01T03:21:34.563Z,99019.85
2019-06-01T03:22:41.061Z,99014.38
2019-06-01T03:23:46.581Z,99014.88
2019-06-01T03:24:51.897Z,99019.31
2019-06-01T03:25:55.970Z,99014.26
2019-06-01T03:27:02.942Z,99017.79
2019-06-01T03:28:09.273Z,99019.25
2019-06-01T03:29:15.473Z,99022.70
2019-06-01T03:30:38.461Z,99014.86
2019-06-01T03:31:41.691Z,99022.48
2019-06-01T03:32:44.799Z,99019.37
2019-06-01T03:33:49.724Z,99026.02
2019-06-01T03:34:53.755Z,99023.70
2019-06-01T03:35:56.413Z,99025.59
2019-06-01T03:37:00.851Z,99022.81
2019-06-01T03:38:04.959Z,99026.08
2019-06-01T03:39:08.270Z,99029.08
2019-06-01T03:40:23.149Z,99020.98
2019-06-01T03:41:16.896Z,99022.66
2019-06-01T03:42:20.783Z,99030.28
2019-06-01T03:43:22.743Z,99024.23
2019-06-01T03:44:25.483Z,99029.88
2019-06-01T03:45:28.125Z,99026.81
2019-06-01T03:46:30.341Z,99036.04
2019-06-01T03:47:32.709Z,99035.78
2019-06-01T03:48:35.639Z,99035.50
2019-06-01T03:49:37.360Z,99039.17
2019-06-01T03:50:40.518Z,99036.53
2019-06-01T03:51:42.982Z,99040.78
2019-06-01T03:52:46.331Z,99041.58
2019-06-01T03:53:49.065Z,99046.31
2019-06-01T03:54:50.797Z,99039.11
2019-06-01T03:55:53.186Z,99044.00
2019-06-01T03:56:55.521Z,99037.19
2019-06-01T03:57:57.214Z,99049.08
2019-06-01T03:59:00.973Z,99047.29
2019-06-01T04:00:07.160Z,99047.30
2019-06-01T04:01:11.289Z,99046.73
2019-06-01T04:02:13.954Z,99045.30
2019-06-01T04:03:16.264Z,99050.44
2019-06-01T04:04:19.604Z,99046.00
2019-06-01T04:05:22.986Z,99045.42
2019-06-01T04:06:25.908Z,99042.52
2019-06-01T04:07:28.472Z,99041.75
2019-06-01T04:08:31.096Z,99041.30
2019-06-01T04:09:32.891Z,99042.40
2019-06-01T04:10:35.215Z,99039.34
2019-06-01T04:11:38.090Z,99036.12
2019-06-01T04:12:40.542Z,99037.02
2019-06-01T04:13:43.287Z,99035.26
2019-06-01T04:14:45.860Z,99034.72
2019-06-01T04:15:49.315Z,99037.23
2019-06-01T04:16:51.701Z,99041.25
2019-06-01T04:17:54.258Z,99037.33
2019-06-01T04:18:56.604Z,99041.87
2019-06-01T04:19:58.983Z,99042.20
2019-06-01T04:21:02.423Z,99050.42
2019-06-01T04:22:10.136Z,99049.23
2019-06-01T04:23:13.406Z,99045.74
2019-06-01T04:24:15.972Z,99051.25
2019-06-01T04:25:19.326Z,99045.09
2019-06-01T04:26:22.423Z,99044.71
2019-06-01T04:27:24.735Z,99045.42
2019-06-01T04:28:27.919Z,99045.66
2019-06-01T04:29:31.289Z,99042.50
2019-06-01T04:30:34.094Z,99043.29
2019-06-01T04:31:36.992Z,99042.28
2019-06-01T04:32:49.271Z,99040.84
2019-06-01T04:33:44.048Z,99034.97
2019-06-01T04:34:46.341Z,99039.78
2019-06-01T04:35:48.765Z,99036.59
2019-06-01T04:36:50.479Z,99037.08
2019-06-01T04:37:53.695Z,99032.64
2019-06-01T04:38:57.699Z,99036.67
2019-06-01T04:40:00.415Z,99036.72
2019-06-01T04:41:03.573Z,99034.36
2019-06-01T04:42:07.630Z,99036.24
2019-06-01T04:43:10.265Z,99033.72
2019-06-01T04:44:14.317Z,99034.36
2019-06-01T04:45:17.295Z,99035.37
2019-06-01T04:46:22.011Z,99038.82
2019-06-01T04:47:26.511Z,99032.83
2019-06-01T04:48:29.026Z,99040.90
2019-06-01T04:49:33.052Z,99038.05
2019-06-01T04:50:36.215Z,99033.50
2019-06-01T04:51:38.011Z,99033.94
2019-06-01T04:52:40.971Z,99028.57
2019-06-01T04:53:44.231Z,99033.45
2019-06-01T04:54:45.979Z,99031.48
2019-06-01T04:55:50.018Z,99033.72
2019-06-01T04:56:52.371Z,99035.06
2019-06-01T04:57:54.781Z,99032.11
2019-06-01T04:58:57.517Z,99038.98
2019-06-01T05:00:00.164Z,99040.79
2019-06-01T05:01:04.752Z,99033.55
2019-06-01T05:02:07.586Z,99033.86
2019-06-01T05:03:11.892Z,99035.47
2019-06-01T05:04:15.425Z,99037.06
2019-06-01T05:05:18.161Z,99032.44
2019-06-01T05:06:20.098Z,99036.46
2019-06-01T05:07:21.843Z,99035.69
2019-06-01T05:08:25.661Z,99035.64
2019-06-01T05:09:27.401Z,99034.14
2019-06-01T05:10:30.092Z,99034.41
2019-06-01T05:11:32.362Z,99035.92
2019-06-01T05:12:35.366Z,99036.83
2019-06-01T05:13:39.832Z,99034.60
2019-06-01T05:14:44.777Z,99038.20
2019-06-01T05:15:47.346Z,99042.28
2019-06-01T05:16:50.167Z,99036.09
2019-06-01T05:17:53.653Z,99033.80
2019-06-01T05:18:56.482Z,99039.53
2019-06-01T05:19:58.906Z,99038.30
2019-06-01T05:21:01.370Z,99035.84
2019-06-01T05:22:04.732Z,99035.51
2019-06-01T05:23:08.462Z,99035.27
2019-06-01T05:24:10.673Z,99037.98
2019-06-01T05:25:15.380Z,99038.63
2019-06-01T05:26:18.233Z,99036.73
2019-06-01T05:27:21.382Z,99033.52
2019-06-01T05:28:23.792Z,99036.12
2019-06-01T05:29:27.032Z,99037.44
2019-06-01T05:30:31.631Z,99037.63
2019-06-01T05:31:35.014Z,99041.29
2019-06-01T05:32:37.817Z,99034.48
2019-06-01T05:33:41.011Z,99030.13
2019-06-01T05:34:43.776Z,99037.31
2019-06-01T05:35:48.526Z,99028.18
2019-06-01T05:36:51.292Z,99033.08
2019-06-01T05:37:54.287Z,99031.56
2019-06-01T05:38:57.057Z,99033.52
2019-06-01T05:39:59.362Z,99028.45
2019-06-01T05:41:03.559Z,99032.75
2019-06-01T05:42:06.336Z,99031.49
2019-06-01T05:43:13.834Z,99034.12
2019-06-01T05:44:14.950Z,99025.88
2019-06-01T05:45:22.205Z,99026.41
2019-06-01T05:46:24.779Z,99024.45
2019-06-01T05:47:27.463Z,99028.02
2019-06-01T05:48:30.857Z,99022.20
2019-06-01T05:49:32.997Z,99029.17
2019-06-01T05:50:35.759Z,99016.20
2019-06-01T05:51:38.180Z,99017.50
2019-06-01T05:52:41.865Z,99016.16
2019-06-01T05:53:44.963Z,99020.13
2019-06-01T05:54:48.092Z,99018.50
2019-06-01T05:55:50.930Z,99016.21
2019-06-01T05:56:53.515Z,99013.25
2019-06-01T05:57:55.260Z,99011.61
2019-06-01T05:58:58.273Z,99018.78
2019-06-01T06:00:01.752Z,99013.31
2019-06-01T06:01:04.021Z,99018.91
2019-06-01T06:02:06.765Z,99013.70
2019-06-01T06:03:12.801Z,99022.41
2019-06-01T06:04:14.098Z,99017.87
2019-06-01T06:05:17.299Z,99015.67
2019-06-01T06:06:21.970Z,99021.17
2019-06-01T06:07:27.237Z,99016.70
2019-06-01T06:08:30.005Z,99019.47
2019-06-01T06:09:32.011Z,99013.19
2019-06-01T06:10:35.827Z,99019.19
2019-06-01T06:11:38.429Z,99018.89
2019-06-01T06:12:41.549Z,99010.89
2019-06-01T06:13:46.148Z,99015.38
2019-06-01T06:14:49.250Z,99011.88
2019-06-01T06:15:53.339Z,99016.41
2019-06-01T06:16:55.898Z,99014.02
2019-06-01T06:17:58.906Z,99013.22
2019-06-01T06:19:03.483Z,99011.09
2019-06-01T06:20:07.124Z,99010.98
2019-06-01T06:21:09.995Z,99008.19
2019-06-01T06:22:12.067Z,99008.47
2019-06-01T06:23:16.484Z,99008.66
2019-06-01T06:24:18.540Z,99004.06
2019-06-01T06:25:21.907Z,99007.72
2019-06-01T06:26:25.220Z,99006.39
2019-06-01T06:27:28.618Z,99004.39
2019-06-01T06:28:30.469Z,99009.39
2019-06-01T06:29:33.296Z,99011.87
2019-06-01T06:30:36.339Z,99010.06
2019-06-01T06:31:40.524Z,99002.73
2019-06-01T06:32:43.713Z,99005.73
2019-06-01T06:33:56.104Z,99009.86
2019-06-01T06:34:51.799Z,99009.55
2019-06-01T06:35:54.926Z,99004.39
2019-06-01T06:36:57.129Z,99012.22
2019-06-01T06:38:01.200Z,99010.39
2019-06-01T06:39:06.285Z,99018.36
2019-06-01T06:40:10.121Z,99011.70
2019-06-01T06:41:13.997Z,99013.05
2019-06-01T06:42:18.633Z,99011.70
2019-06-01T06:43:29.483Z,99009.89
2019-06-01T06:44:26.626Z,99007.05
2019-06-01T06:45:28.885Z,99010.04
2019-06-01T06:46:32.203Z,99009.84
2019-06-01T06:47:36.338Z,99010.69
2019-06-01T06:48:39.309Z,99009.39
2019-06-01T06:49:42.220Z,99004.53
2019-06-01T06:50:47.794Z,99012.02
2019-06-01T06:51:51.396Z,99010.36
2019-06-01T06:52:54.098Z,99014.34
2019-06-01T06:53:57.159Z,99012.02
2019-06-01T06:55:00.083Z,99018.02
2019-06-01T06:56:04.343Z,99015.34
2019-06-01T06:57:08.222Z,99023.34
2019-06-01T06:58:14.197Z,99018.70
2019-06-01T06:59:18.330Z,99016.52
2019-06-01T07:00:22.681Z,99017.50
2019-06-01T07:01:26.875Z,99010.33
2019-06-01T07:02:30.055Z,99017.27
2019-06-01T07:03:32.731Z,99011.89
2019-06-01T07:04:35.388Z,99011.56
2019-06-01T07:05:38.199Z,99012.27
2019-06-01T07:06:41.646Z,99023.11
2019-06-01T07:07:44.476Z,99025.29
2019-06-01T07:08:48.860Z,99019.02
2019-06-01T07:09:53.080Z,99016.33
2019-06-01T07:10:55.839Z,99017.85
2019-06-01T07:11:58.655Z,99011.70
2019-06-01T07:13:01.960Z,99014.33
2019-06-01T07:14:05.931Z,99019.31
2019-06-01T07:15:09.109Z,99010.17
2019-06-01T07:16:13.133Z,99018.47
2019-06-01T07:17:16.619Z,99008.67
2019-06-01T07:18:19.913Z,99015.28
2019-06-01T07:19:23.663Z,99021.58
2019-06-01T07:20:27.835Z,99012.59
2019-06-01T07:21:32.002Z,99005.13
2019-06-01T07:22:35.799Z,99011.18
2019-06-01T07:23:41.729Z,99010.01
2019-06-01T07:24:44.245Z,99003.00
2019-06-01T07:25:49.117Z,99005.66
2019-06-01T07:26:52.247Z,99001.30
2019-06-01T07:27:54.971Z,99010.97
2019-06-01T07:29:03.176Z,99011.63
2019-06-01T07:30:08.067Z,99008.59
2019-06-01T07:31:10.870Z,99002.25
2019-06-01T07:32:14.352Z,98998.91
2019-06-01T07:33:17.303Z,98999.64
2019-06-01T07:34:30.921Z,99002.53
2019-06-01T07:35:26.665Z,98999.31
2019-06-01T07:36:29.519Z,98996.81
2019-06-01T07:37:32.748Z,99000.11
2019-06-01T07:38:35.733Z,99002.03
2019-06-01T07:39:37.568Z,99004.70
2019-06-01T07:40:40.863Z,99004.65
2019-06-01T07:41:43.563Z,99007.78
2019-06-01T07:42:46.780Z,99005.18
2019-06-01T07:43:49.803Z,98998.89
2019-06-01T07:44:52.284Z,99013.63
2019-06-01T07:45:54.344Z,99003.27
2019-06-01T07:46:57.223Z,99006.09
2019-06-01T07:47:59.792Z,99010.22
2019-06-01T07:49:03.061Z,99008.53
2019-06-01T07:50:06.560Z,99015.00
2019-06-01T07:51:09.634Z,99012.52
2019-06-01T07:52:13.377Z,99012.73
2019-06-01T07:53:16.988Z,99013.12
2019-06-01T07:54:20.266Z,99012.09
2019-06-01T07:55:23.529Z,99010.34
2019-06-01T07:56:26.936Z,99005.44
2019-06-01T07:57:31.793Z,99013.14
2019-06-01T07:58:33.973Z,99015.28
2019-06-01T07:59:38.923Z,99015.14
2019-06-01T08:00:40.902Z,99002.13
2019-06-01T08:01:46.578Z,99006.67
2019-06-01T08:02:50.035Z,99011.64
2019-06-01T08:03:52.953Z,99014.02
2019-06-01T08:04:56.314Z,99011.14
2019-06-01T08:05:59.268Z,99009.43
2019-06-01T08:07:06.436Z,99005.20
2019-06-01T08:08:10.035Z,99003.66
2019-06-01T08:09:13.644Z,99012.98
2019-06-01T08:10:16.237Z,99007.39
2019-06-01T08:11:19.479Z,99015.70
2019-06-01T08:12:23.387Z,99008.59
2019-06-01T08:13:31.507Z,99018.37
2019-06-01T08:14:32.764Z,99012.75
2019-06-01T08:15:34.917Z,99013.13
2019-06-01T08:16:39.389Z,99013.88
2019-06-01T08:17:42.146Z,99021.28
2019-06-01T08:18:43.850Z,99013.10
2019-06-01T08:19:51.648Z,99011.85
2019-06-01T08:20:52.185Z,99014.78
2019-06-01T08:21:54.771Z,99019.78
2019-06-01T08:22:59.638Z,99019.05
2019-06-01T08:24:02.741Z,99019.99
2019-06-01T08:25:06.953Z,99012.66
2019-06-01T08:26:09.815Z,99011.88
2019-06-01T08:27:13.044Z,99018.59
2019-06-01T08:28:16.182Z,99015.46
2019-06-01T08:29:22.613Z,99005.04
2019-06-01T08:30:28.666Z,99008.44
2019-06-01T08:31:38.039Z,99015.18
2019-06-01T08:32:42.381Z,99016.17
2019-06-01T08:33:46.434Z,99006.78
2019-06-01T08:35:04.823Z,99011.52
2019-06-01T08:35:54.908Z,99016.99
2019-06-01T08:36:58.178Z,99013.45
2019-06-01T08:38:03.158Z,99008.72
2019-06-01T08:39:08.134Z,99011.59
2019-06-01T08:40:10.705Z,99008.97
2019-06-01T08:41:15.305Z,99012.34
2019-06-01T08:42:18.725Z,99010.30
2019-06-01T08:43:23.538Z,99014.83
2019-06-01T08:44:27.759Z,99009.69
2019-06-01T08:45:35.357Z,99004.31
2019-06-01T08:46:35.602Z,99018.41
2019-06-01T08:47:39.937Z,99013.83
2019-06-01T08:48:41.860Z,99009.15
2019-06-01T08:49:45.112Z,99011.66
2019-06-01T08:50:48.474Z,99012.90
2019-06-01T08:51:51.866Z,99016.08
2019-06-01T08:52:54.607Z,99006.91
2019-06-01T08:54:00.930Z,99017.05
2019-06-01T08:55:06.035Z,99016.19
2019-06-01T08:56:09.147Z,99007.48
2019-06-01T08:57:13.589Z,99014.36
2019-06-01T08:58:15.466Z,99015.33
2019-06-01T08:59:20.296Z,99009.20
2019-06-01T09:00:24.354Z,99017.28
2019-06-01T09:01:29.104Z,99015.28
2019-06-01T09:02:32.818Z,99013.81
2019-06-01T09:03:45.482Z,99012.98
2019-06-01T09:04:42.135Z,99008.53
2019-06-01T09:05:45.585Z,99017.28
2019-06-01T09:06:47.914Z,99014.66
2019-06-01T09:07:50.595Z,99011.48
2019-06-01T09:08:53.746Z,99012.56
2019-06-01T09:09:58.213Z,99021.77
2019-06-01T09:11:03.388Z,99015.27
2019-06-01T09:12:09.495Z,99007.95
2019-06-01T09:13:11.709Z,99010.93
2019-06-01T09:14:14.819Z,99009.61
2019-06-01T09:15:18.745Z,99018.13
2019-06-01T09:16:25.499Z,99009.38
2019-06-01T09:17:31.542Z,99013.38
2019-06-01T09:18:33.741Z,99004.17
2019-06-01T09:19:37.912Z,99008.91
2019-06-01T09:20:43.274Z,99012.27
2019-06-01T09:21:46.299Z,99026.39
2019-06-01T09:22:51.674Z,99005.53
2019-06-01T09:23:57.091Z,99016.80
2019-06-01T09:25:00.456Z,99024.77
2019-06-01T09:26:03.781Z,99000.48
2019-06-01T09:27:06.780Z,99012.28
2019-06-01T09:28:09.959Z,99010.31
2019-06-01T09:29:12.922Z,99016.22
2019-06-01T09:30:16.639Z,99010.39
2019-06-01T09:31:19.627Z,99010.49
2019-06-01T09:32:22.821Z,99014.95
2019-06-01T09:33:26.107Z,99008.80
2019-06-01T09:34:28.502Z,99011.63
2019-06-01T09:35:48.647Z,99001.43
2019-06-01T09:36:36.818Z,99004.61
2019-06-01T09:37:40.477Z,98998.81
2019-06-01T09:38:43.389Z,99002.27
2019-06-01T09:39:45.571Z,99007.42
2019-06-01T09:40:48.952Z,99000.80
2019-06-01T09:41:52.129Z,99013.02
2019-06-01T09:42:54.827Z,99001.84
2019-06-01T09:43:57.709Z,99008.45
2019-06-01T09:45:01.423Z,99020.95
2019-06-01T09:46:03.770Z,99006.59
2019-06-01T09:47:06.896Z,99007.86
2019-06-01T09:48:09.796Z,99017.37
2019-06-01T09:49:11.903Z,99011.39
2019-06-01T09:50:14.925Z,99012.20
2019-06-01T09:51:18.395Z,99005.36
2019-06-01T09:52:22.042Z,99001.64
2019-06-01T09:53:25.091Z,99009.89
2019-06-01T09:54:29.453Z,99006.06
2019-06-01T09:55:34.424Z,99005.16
2019-06-01T09:56:39.821Z,99001.18
2019-06-01T09:57:42.590Z,98997.00
2019-06-01T09:58:45.482Z,99012.73
2019-06-01T09:59:48.894Z,99013.72
2019-06-01T10:00:51.038Z,99002.66
2019-06-01T10:01:56.681Z,98990.82
2019-06-01T10:02:59.512Z,98997.73
2019-06-01T10:04:02.540Z,99002.20
2019-06-01T10:05:07.615Z,99000.05
2019-06-01T10:06:13.849Z,99004.25
2019-06-01T10:07:15.733Z,99006.09
2019-06-01T10:08:18.507Z,99000.33
2019-06-01T10:09:20.399Z,98995.91
2019-06-01T10:10:23.425Z,99004.17
2019-06-01T10:11:26.297Z,99005.08
2019-06-01T10:12:28.223Z,98997.78
2019-06-01T10:13:30.582Z,98997.49
2019-06-01T10:14:34.163Z,99000.64
2019-06-01T10:15:39.522Z,99004.45
2019-06-01T10:16:43.140Z,98998.22
2019-06-01T10:17:46.895Z,99003.66
2019-06-01T10:18:51.542Z,99012.58
2019-06-01T10:19:55.275Z,98994.74
2019-06-01T10:20:58.121Z,98998.31
2019-06-01T10:22:00.807Z,98994.53
2019-06-01T10:23:05.715Z,98999.92
2019-06-01T10:24:08.155Z,98997.42
2019-06-01T10:25:10.891Z,99004.63
2019-06-01T10:26:14.158Z,99001.87
2019-06-01T10:27:16.625Z,99007.61
2019-06-01T10:28:18.767Z,99007.34
2019-06-01T10:29:21.987Z,99006.41
2019-06-01T10:30:25.258Z,98998.77
2019-06-01T10:31:27.686Z,99001.34
2019-06-01T10:32:32.363Z,98993.50
2019-06-01T10:33:34.815Z,98997.78
2019-06-01T10:34:39.848Z,98991.78
2019-06-01T10:35:43.173Z,98997.38
2019-06-01T10:36:46.150Z,98992.34
2019-06-01T10:37:49.031Z,98992.91
2019-06-01T10:38:51.971Z,98993.41
2019-06-01T10:39:55.223Z,98987.44
2019-06-01T10:40:57.557Z,98990.59
2019-06-01T10:42:00.523Z,98988.09
2019-06-01T10:43:03.570Z,98994.27
2019-06-01T10:44:06.401Z,98993.70
2019-06-01T10:45:10.995Z,98992.03
2019-06-01T10:46:14.140Z,98996.36
2019-06-01T10:47:17.550Z,98996.63
2019-06-01T10:48:20.931Z,98995.72
2019-06-01T10:49:24.016Z,98994.86
2019-06-01T10:50:32.809Z,98990.58
2019-06-01T10:51:34.189Z,98984.92
2019-06-01T10:52:38.380Z,98982.81
2019-06-01T10:53:43.893Z,98985.38
2019-06-01T10:54:49.030Z,98989.30
2019-06-01T10:55:52.132Z,98991.60
2019-06-01T10:56:56.493Z,98988.88
2019-06-01T10:57:59.597Z,98990.89
2019-06-01T10:59:03.689Z,98981.60
2019-06-01T11:01:10.634Z,98981.73
2019-06-01T11:02:18.281Z,98986.32
2019-06-01T11:03:20.755Z,98986.69
2019-06-01T11:04:24.589Z,98984.45
2019-06-01T11:05:29.528Z,98985.86
2019-06-01T11:06:40.191Z,98993.05
2019-06-01T11:07:37.434Z,98989.35
2019-06-01T11:08:41.071Z,98987.72
2019-06-01T11:09:43.316Z,98985.94
2019-06-01T11:10:46.297Z,98981.22
2019-06-01T11:11:49.283Z,98989.30
2019-06-01T11:12:51.518Z,98978.12
2019-06-01T11:13:56.263Z,98982.43
2019-06-01T11:14:59.052Z,98986.77
2019-06-01T11:16:01.799Z,98981.68
2019-06-01T11:17:05.979Z,98978.36
2019-06-01T11:18:09.314Z,98974.66
2019-06-01T11:19:11.016Z,98977.39
2019-06-01T11:20:17.668Z,98978.80
2019-06-01T11:21:22.149Z,98973.98
2019-06-01T11:22:25.513Z,98973.33
2019-06-01T11:23:28.391Z,98969.94
2019-06-01T11:24:30.298Z,98969.41
2019-06-01T11:25:33.467Z,98969.77
2019-06-01T11:26:37.979Z,98964.80
2019-06-01T11:27:39.928Z,98968.12
2019-06-01T11:28:45.338Z,98969.89
2019-06-01T11:29:51.543Z,98970.33
2019-06-01T11:30:52.133Z,98964.59
2019-06-01T11:31:55.691Z,98964.49
2019-06-01T11:32:58.579Z,98968.20
2019-06-01T11:34:01.489Z,98959.69
2019-06-01T11:35:06.357Z,98964.97
2019-06-01T11:36:09.943Z,98972.45
2019-06-01T11:37:15.489Z,98963.70
2019-06-01T11:38:18.377Z,98965.63
2019-06-01T11:39:20.449Z,98964.16
2019-06-01T11:40:23.961Z,98962.59
2019-06-01T11:41:27.361Z,98967.86
2019-06-01T11:42:30.512Z,98965.98
2019-06-01T11:43:35.125Z,98971.34
2019-06-01T11:44:38.969Z,98961.98
2019-06-01T11:45:41.378Z,98962.26
2019-06-01T11:46:45.495Z,98961.05
2019-06-01T11:47:48.893Z,98955.69
2019-06-01T11:48:52.063Z,98963.34
2019-06-01T11:49:57.237Z,98965.51
2019-06-01T11:51:01.164Z,98946.27
2019-06-01T11:52:05.739Z,98954.91
2019-06-01T11:53:08.425Z,98957.21
2019-06-01T11:54:10.696Z,98954.66
2019-06-01T11:55:12.833Z,98950.09
2019-06-01T11:56:15.121Z,98959.58
2019-06-01T11:57:17.994Z,98959.01
2019-06-01T11:58:20.530Z,98953.80
2019-06-01T11:59:23.619Z,98949.66
2019-06-01T12:00:26.940Z,98950.55
2019-06-01T12:01:30.330Z,98947.64
2019-06-01T12:02:33.717Z,98952.83
2019-06-01T12:03:35.557Z,98950.75
2019-06-01T12:04:37.912Z,98955.40
2019-06-01T12:05:42.008Z,98952.84
2019-06-01T12:06:46.300Z,98947.29
2019-06-01T12:07:50.907Z,98939.20
2019-06-01T12:08:54.280Z,98948.63
2019-06-01T12:09:57.374Z,98942.20
2019-06-01T12:11:02.578Z,98941.42
2019-06-01T12:12:05.407Z,98941.73
2019-06-01T12:13:07.218Z,98938.69
2019-06-01T12:14:09.686Z,98934.98
2019-06-01T12:15:15.466Z,98936.88
2019-06-01T12:16:17.224Z,98934.11
2019-06-01T12:17:21.346Z,98935.76
2019-06-01T12:18:23.659Z,98938.27
2019-06-01T12:19:26.808Z,98936.52
2019-06-01T12:20:33.658Z,98932.78
2019-06-01T12:21:37.077Z,98936.94
2019-06-01T12:22:40.844Z,98930.73
2019-06-01T12:23:43.636Z,98927.57
2019-06-01T12:24:47.407Z,98931.13
2019-06-01T12:25:50.296Z,98935.03
2019-06-01T12:26:52.824Z,98929.87